sensor_id;sensor_type;location;lat;lon;timestamp;P1;durP1;ratioP1;P2;durP2;ratioP2
34064;SDS011;20339;49.754;20.158;2023-07-28T00:00:15;3.00;;;1.80;;
34064;SDS011;20339;49.754;20.158;2023-07-28T00:03:09;2.30;;;2.00;;
34064;SDS011;20339;49.754;20.158;2023-07-28T00:05:42;2.20;;;1.90;;
34064;SDS011;20339;49.754;20.158;2023-07-28T00:08:13;2.90;;;1.90;;
34064;SDS011;20339;49.754;20.158;2023-07-28T00:10:44;1.20;;;1.10;;
34064;SDS011;20339;49.754;20.158;2023-07-28T00:13:15;2.40;;;1.80;;
34064;SDS011;20339;49.754;20.158;2023-07-28T00:15:46;2.60;;;1.80;;
34064;SDS011;20339;49.754;20.158;2023-07-28T00:18:17;2.60;;;1.70;;
34064;SDS011;20339;49.754;20.158;2023-07-28T00:20:49;4.20;;;2.20;;
34064;SDS011;20339;49.754;20.158;2023-07-28T00:23:20;2.80;;;1.70;;
34064;SDS011;20339;49.754;20.158;2023-07-28T00:25:51;2.10;;;1.70;;
34064;SDS011;20339;49.754;20.158;2023-07-28T00:28:25;2.90;;;2.00;;
34064;SDS011;20339;49.754;20.158;2023-07-28T00:30:59;2.30;;;1.70;;
34064;SDS011;20339;49.754;20.158;2023-07-28T00:33:36;2.30;;;1.50;;
34064;SDS011;20339;49.754;20.158;2023-07-28T00:36:07;2.30;;;1.80;;
34064;SDS011;20339;49.754;20.158;2023-07-28T00:38:38;2.00;;;1.50;;
34064;SDS011;20339;49.754;20.158;2023-07-28T00:41:11;2.80;;;1.70;;
34064;SDS011;20339;49.754;20.158;2023-07-28T00:43:42;3.30;;;2.10;;
34064;SDS011;20339;49.754;20.158;2023-07-28T00:46:13;2.30;;;1.70;;
34064;SDS011;20339;49.754;20.158;2023-07-28T00:48:45;3.10;;;2.10;;
34064;SDS011;20339;49.754;20.158;2023-07-28T00:51:16;4.40;;;1.90;;
34064;SDS011;20339;49.754;20.158;2023-07-28T00:53:47;2.20;;;1.80;;
34064;SDS011;20339;49.754;20.158;2023-07-28T00:56:21;4.50;;;2.10;;
34064;SDS011;20339;49.754;20.158;2023-07-28T00:58:53;4.20;;;1.60;;
34064;SDS011;20339;49.754;20.158;2023-07-28T01:01:24;3.80;;;1.70;;
34064;SDS011;20339;49.754;20.158;2023-07-28T01:03:55;3.00;;;2.10;;
34064;SDS011;20339;49.754;20.158;2023-07-28T01:06:30;2.60;;;2.00;;
34064;SDS011;20339;49.754;20.158;2023-07-28T01:09:12;3.00;;;1.60;;
34064;SDS011;20339;49.754;20.158;2023-07-28T01:11:54;2.90;;;1.70;;
34064;SDS011;20339;49.754;20.158;2023-07-28T01:14:25;2.00;;;1.50;;
34064;SDS011;20339;49.754;20.158;2023-07-28T01:16:58;2.30;;;1.70;;
34064;SDS011;20339;49.754;20.158;2023-07-28T01:19:32;2.00;;;1.50;;
34064;SDS011;20339;49.754;20.158;2023-07-28T01:22:14;2.40;;;1.70;;
34064;SDS011;20339;49.754;20.158;2023-07-28T01:25:00;2.40;;;1.70;;
34064;SDS011;20339;49.754;20.158;2023-07-28T01:27:43;3.30;;;2.20;;
34064;SDS011;20339;49.754;20.158;2023-07-28T01:30:15;2.40;;;1.60;;
34064;SDS011;20339;49.754;20.158;2023-07-28T01:32:48;2.10;;;1.70;;
34064;SDS011;20339;49.754;20.158;2023-07-28T01:35:18;2.30;;;1.70;;
34064;SDS011;20339;49.754;20.158;2023-07-28T01:37:49;4.60;;;1.60;;
34064;SDS011;20339;49.754;20.158;2023-07-28T01:40:21;3.40;;;1.80;;
34064;SDS011;20339;49.754;20.158;2023-07-28T01:42:52;2.80;;;2.00;;
34064;SDS011;20339;49.754;20.158;2023-07-28T01:45:23;3.40;;;1.70;;
34064;SDS011;20339;49.754;20.158;2023-07-28T01:47:54;1.70;;;1.40;;
34064;SDS011;20339;49.754;20.158;2023-07-28T01:50:25;4.20;;;2.10;;
34064;SDS011;20339;49.754;20.158;2023-07-28T01:52:58;2.80;;;2.00;;
34064;SDS011;20339;49.754;20.158;2023-07-28T01:55:31;3.40;;;2.30;;
34064;SDS011;20339;49.754;20.158;2023-07-28T01:58:03;2.80;;;1.70;;
34064;SDS011;20339;49.754;20.158;2023-07-28T02:00:34;3.00;;;2.30;;
34064;SDS011;20339;49.754;20.158;2023-07-28T02:03:06;2.50;;;1.90;;
34064;SDS011;20339;49.754;20.158;2023-07-28T02:05:37;2.70;;;1.90;;
34064;SDS011;20339;49.754;20.158;2023-07-28T02:08:09;3.30;;;2.10;;
34064;SDS011;20339;49.754;20.158;2023-07-28T02:10:40;2.70;;;1.70;;
34064;SDS011;20339;49.754;20.158;2023-07-28T02:13:11;1.70;;;1.50;;
34064;SDS011;20339;49.754;20.158;2023-07-28T02:15:42;3.40;;;1.80;;
34064;SDS011;20339;49.754;20.158;2023-07-28T02:18:13;3.00;;;1.60;;
34064;SDS011;20339;49.754;20.158;2023-07-28T02:20:47;3.60;;;1.70;;
34064;SDS011;20339;49.754;20.158;2023-07-28T02:23:18;3.70;;;1.70;;
34064;SDS011;20339;49.754;20.158;2023-07-28T02:25:51;1.90;;;1.50;;
34064;SDS011;20339;49.754;20.158;2023-07-28T02:28:22;2.70;;;2.10;;
34064;SDS011;20339;49.754;20.158;2023-07-28T02:30:53;2.40;;;1.70;;
34064;SDS011;20339;49.754;20.158;2023-07-28T02:33:24;3.20;;;1.90;;
34064;SDS011;20339;49.754;20.158;2023-07-28T02:36:03;3.20;;;1.70;;
34064;SDS011;20339;49.754;20.158;2023-07-28T02:38:34;2.50;;;1.60;;
34064;SDS011;20339;49.754;20.158;2023-07-28T02:41:05;3.90;;;1.80;;
34064;SDS011;20339;49.754;20.158;2023-07-28T02:43:36;2.70;;;2.00;;
34064;SDS011;20339;49.754;20.158;2023-07-28T02:46:09;1.30;;;1.00;;
34064;SDS011;20339;49.754;20.158;2023-07-28T02:48:40;3.00;;;2.00;;
34064;SDS011;20339;49.754;20.158;2023-07-28T02:51:14;2.60;;;2.00;;
34064;SDS011;20339;49.754;20.158;2023-07-28T02:53:45;2.50;;;1.80;;
34064;SDS011;20339;49.754;20.158;2023-07-28T02:56:16;3.10;;;2.10;;
34064;SDS011;20339;49.754;20.158;2023-07-28T02:58:48;3.20;;;1.80;;
34064;SDS011;20339;49.754;20.158;2023-07-28T03:01:19;2.70;;;1.70;;
34064;SDS011;20339;49.754;20.158;2023-07-28T03:03:50;2.50;;;1.90;;
34064;SDS011;20339;49.754;20.158;2023-07-28T03:06:21;1.80;;;1.30;;
34064;SDS011;20339;49.754;20.158;2023-07-28T03:08:52;3.50;;;1.80;;
34064;SDS011;20339;49.754;20.158;2023-07-28T03:11:23;2.00;;;1.80;;
34064;SDS011;20339;49.754;20.158;2023-07-28T03:13:57;2.90;;;2.00;;
34064;SDS011;20339;49.754;20.158;2023-07-28T03:16:28;3.60;;;1.90;;
34064;SDS011;20339;49.754;20.158;2023-07-28T03:19:07;3.20;;;1.90;;
34064;SDS011;20339;49.754;20.158;2023-07-28T03:21:38;2.60;;;1.40;;
34064;SDS011;20339;49.754;20.158;2023-07-28T03:24:09;3.00;;;2.00;;
34064;SDS011;20339;49.754;20.158;2023-07-28T03:26:40;2.20;;;1.80;;
34064;SDS011;20339;49.754;20.158;2023-07-28T03:29:11;2.30;;;2.10;;
34064;SDS011;20339;49.754;20.158;2023-07-28T03:31:42;1.80;;;1.40;;
34064;SDS011;20339;49.754;20.158;2023-07-28T03:34:14;2.70;;;1.80;;
34064;SDS011;20339;49.754;20.158;2023-07-28T03:36:45;3.50;;;1.80;;
34064;SDS011;20339;49.754;20.158;2023-07-28T03:39:16;3.10;;;1.60;;
34064;SDS011;20339;49.754;20.158;2023-07-28T03:41:46;2.50;;;1.40;;
34064;SDS011;20339;49.754;20.158;2023-07-28T03:44:18;2.30;;;1.70;;
34064;SDS011;20339;49.754;20.158;2023-07-28T03:46:49;2.00;;;1.60;;
34064;SDS011;20339;49.754;20.158;2023-07-28T03:49:21;2.70;;;1.90;;
34064;SDS011;20339;49.754;20.158;2023-07-28T03:51:52;2.40;;;1.90;;
34064;SDS011;20339;49.754;20.158;2023-07-28T03:54:24;2.90;;;2.00;;
34064;SDS011;20339;49.754;20.158;2023-07-28T03:56:55;3.60;;;1.80;;
34064;SDS011;20339;49.754;20.158;2023-07-28T03:59:27;2.90;;;1.60;;
34064;SDS011;20339;49.754;20.158;2023-07-28T04:01:58;1.90;;;1.70;;
34064;SDS011;20339;49.754;20.158;2023-07-28T04:04:29;2.60;;;2.00;;
34064;SDS011;20339;49.754;20.158;2023-07-28T04:07:02;2.20;;;1.70;;
34064;SDS011;20339;49.754;20.158;2023-07-28T04:09:34;2.50;;;2.10;;
34064;SDS011;20339;49.754;20.158;2023-07-28T04:12:05;2.90;;;1.70;;
34064;SDS011;20339;49.754;20.158;2023-07-28T04:14:38;3.60;;;1.90;;
34064;SDS011;20339;49.754;20.158;2023-07-28T04:17:09;2.00;;;1.80;;
34064;SDS011;20339;49.754;20.158;2023-07-28T04:19:41;2.40;;;2.00;;
34064;SDS011;20339;49.754;20.158;2023-07-28T04:22:12;2.50;;;1.40;;
34064;SDS011;20339;49.754;20.158;2023-07-28T04:24:49;2.30;;;1.60;;
34064;SDS011;20339;49.754;20.158;2023-07-28T04:27:21;2.70;;;1.90;;
34064;SDS011;20339;49.754;20.158;2023-07-28T04:29:53;2.70;;;2.10;;
34064;SDS011;20339;49.754;20.158;2023-07-28T04:32:24;3.80;;;1.90;;
34064;SDS011;20339;49.754;20.158;2023-07-28T04:34:57;2.40;;;1.80;;
34064;SDS011;20339;49.754;20.158;2023-07-28T04:37:30;2.60;;;1.90;;
34064;SDS011;20339;49.754;20.158;2023-07-28T04:40:04;4.40;;;2.10;;
34064;SDS011;20339;49.754;20.158;2023-07-28T04:42:37;2.50;;;1.60;;
34064;SDS011;20339;49.754;20.158;2023-07-28T04:45:09;2.00;;;1.60;;
34064;SDS011;20339;49.754;20.158;2023-07-28T04:47:40;2.40;;;1.80;;
34064;SDS011;20339;49.754;20.158;2023-07-28T04:50:13;3.20;;;2.20;;
34064;SDS011;20339;49.754;20.158;2023-07-28T04:52:44;3.60;;;1.50;;
34064;SDS011;20339;49.754;20.158;2023-07-28T04:55:15;3.60;;;1.80;;
34064;SDS011;20339;49.754;20.158;2023-07-28T04:57:47;3.50;;;1.90;;
34064;SDS011;20339;49.754;20.158;2023-07-28T05:00:18;3.30;;;2.10;;
34064;SDS011;20339;49.754;20.158;2023-07-28T05:02:50;2.90;;;1.80;;
34064;SDS011;20339;49.754;20.158;2023-07-28T05:05:22;2.40;;;1.40;;
34064;SDS011;20339;49.754;20.158;2023-07-28T05:07:53;1.80;;;1.30;;
34064;SDS011;20339;49.754;20.158;2023-07-28T05:10:25;2.90;;;1.70;;
34064;SDS011;20339;49.754;20.158;2023-07-28T05:12:56;2.80;;;1.70;;
34064;SDS011;20339;49.754;20.158;2023-07-28T05:15:27;2.40;;;1.60;;
34064;SDS011;20339;49.754;20.158;2023-07-28T05:18:00;3.60;;;2.00;;
34064;SDS011;20339;49.754;20.158;2023-07-28T05:20:33;2.80;;;1.70;;
34064;SDS011;20339;49.754;20.158;2023-07-28T05:23:05;2.20;;;2.00;;
34064;SDS011;20339;49.754;20.158;2023-07-28T05:25:36;3.50;;;2.30;;
34064;SDS011;20339;49.754;20.158;2023-07-28T05:28:07;2.00;;;1.80;;
34064;SDS011;20339;49.754;20.158;2023-07-28T05:30:38;4.40;;;1.90;;
34064;SDS011;20339;49.754;20.158;2023-07-28T05:33:09;3.80;;;2.30;;
34064;SDS011;20339;49.754;20.158;2023-07-28T05:35:40;4.60;;;1.90;;
34064;SDS011;20339;49.754;20.158;2023-07-28T05:38:11;3.80;;;2.10;;
34064;SDS011;20339;49.754;20.158;2023-07-28T05:40:42;1.80;;;1.30;;
34064;SDS011;20339;49.754;20.158;2023-07-28T05:43:13;4.10;;;2.10;;
34064;SDS011;20339;49.754;20.158;2023-07-28T05:45:47;4.70;;;1.90;;
34064;SDS011;20339;49.754;20.158;2023-07-28T05:48:18;4.10;;;2.00;;
34064;SDS011;20339;49.754;20.158;2023-07-28T05:50:49;3.80;;;2.00;;
34064;SDS011;20339;49.754;20.158;2023-07-28T05:53:21;2.20;;;1.90;;
34064;SDS011;20339;49.754;20.158;2023-07-28T05:55:52;2.50;;;1.70;;
34064;SDS011;20339;49.754;20.158;2023-07-28T05:58:26;3.40;;;1.70;;
34064;SDS011;20339;49.754;20.158;2023-07-28T06:01:02;3.10;;;2.30;;
34064;SDS011;20339;49.754;20.158;2023-07-28T06:03:36;3.80;;;1.90;;
34064;SDS011;20339;49.754;20.158;2023-07-28T06:06:07;3.30;;;2.00;;
34064;SDS011;20339;49.754;20.158;2023-07-28T06:08:38;2.00;;;1.80;;
34064;SDS011;20339;49.754;20.158;2023-07-28T06:11:09;3.70;;;2.20;;
34064;SDS011;20339;49.754;20.158;2023-07-28T06:13:42;6.30;;;2.00;;
34064;SDS011;20339;49.754;20.158;2023-07-28T06:16:14;2.60;;;2.00;;
34064;SDS011;20339;49.754;20.158;2023-07-28T06:18:46;3.00;;;2.10;;
34064;SDS011;20339;49.754;20.158;2023-07-28T06:21:17;2.90;;;2.10;;
34064;SDS011;20339;49.754;20.158;2023-07-28T06:23:48;3.90;;;2.70;;
34064;SDS011;20339;49.754;20.158;2023-07-28T06:26:19;2.60;;;2.10;;
34064;SDS011;20339;49.754;20.158;2023-07-28T06:28:50;2.50;;;2.10;;
34064;SDS011;20339;49.754;20.158;2023-07-28T06:31:21;3.30;;;2.00;;
34064;SDS011;20339;49.754;20.158;2023-07-28T06:33:52;2.80;;;2.20;;
34064;SDS011;20339;49.754;20.158;2023-07-28T06:36:24;3.30;;;2.30;;
34064;SDS011;20339;49.754;20.158;2023-07-28T06:39:03;2.10;;;1.80;;
34064;SDS011;20339;49.754;20.158;2023-07-28T06:41:34;3.60;;;2.10;;
34064;SDS011;20339;49.754;20.158;2023-07-28T06:44:06;2.40;;;1.70;;
34064;SDS011;20339;49.754;20.158;2023-07-28T06:46:37;4.00;;;2.50;;
34064;SDS011;20339;49.754;20.158;2023-07-28T06:49:08;4.30;;;2.80;;
34064;SDS011;20339;49.754;20.158;2023-07-28T06:51:42;3.00;;;2.40;;
34064;SDS011;20339;49.754;20.158;2023-07-28T06:54:13;2.00;;;1.60;;
34064;SDS011;20339;49.754;20.158;2023-07-28T06:56:44;3.20;;;2.40;;
34064;SDS011;20339;49.754;20.158;2023-07-28T06:59:16;3.00;;;2.30;;
34064;SDS011;20339;49.754;20.158;2023-07-28T07:01:49;3.00;;;1.70;;
34064;SDS011;20339;49.754;20.158;2023-07-28T07:04:20;3.40;;;2.20;;
34064;SDS011;20339;49.754;20.158;2023-07-28T07:06:51;4.90;;;2.30;;
34064;SDS011;20339;49.754;20.158;2023-07-28T07:09:22;3.00;;;2.50;;
34064;SDS011;20339;49.754;20.158;2023-07-28T07:11:56;2.50;;;1.90;;
34064;SDS011;20339;49.754;20.158;2023-07-28T07:14:27;3.00;;;2.20;;
34064;SDS011;20339;49.754;20.158;2023-07-28T07:17:01;3.20;;;1.90;;
34064;SDS011;20339;49.754;20.158;2023-07-28T07:19:33;4.20;;;2.10;;
34064;SDS011;20339;49.754;20.158;2023-07-28T07:22:04;3.80;;;2.40;;
34064;SDS011;20339;49.754;20.158;2023-07-28T07:24:36;3.40;;;2.30;;
34064;SDS011;20339;49.754;20.158;2023-07-28T07:27:07;2.70;;;1.80;;
34064;SDS011;20339;49.754;20.158;2023-07-28T07:29:39;4.50;;;2.60;;
34064;SDS011;20339;49.754;20.158;2023-07-28T07:32:10;2.00;;;1.40;;
34064;SDS011;20339;49.754;20.158;2023-07-28T07:34:44;2.70;;;2.20;;
34064;SDS011;20339;49.754;20.158;2023-07-28T07:37:15;4.10;;;2.60;;
34064;SDS011;20339;49.754;20.158;2023-07-28T07:39:46;3.10;;;2.40;;
34064;SDS011;20339;49.754;20.158;2023-07-28T07:42:18;4.10;;;2.50;;
34064;SDS011;20339;49.754;20.158;2023-07-28T07:44:49;3.70;;;2.60;;
34064;SDS011;20339;49.754;20.158;2023-07-28T07:47:20;3.70;;;2.40;;
34064;SDS011;20339;49.754;20.158;2023-07-28T07:49:52;4.00;;;2.40;;
34064;SDS011;20339;49.754;20.158;2023-07-28T07:52:23;4.00;;;2.60;;
34064;SDS011;20339;49.754;20.158;2023-07-28T07:54:54;4.00;;;2.50;;
34064;SDS011;20339;49.754;20.158;2023-07-28T07:57:28;3.90;;;2.40;;
34064;SDS011;20339;49.754;20.158;2023-07-28T08:00:00;3.50;;;2.40;;
34064;SDS011;20339;49.754;20.158;2023-07-28T08:02:35;4.80;;;2.70;;
34064;SDS011;20339;49.754;20.158;2023-07-28T08:05:07;4.00;;;2.20;;
34064;SDS011;20339;49.754;20.158;2023-07-28T08:07:41;3.10;;;2.30;;
34064;SDS011;20339;49.754;20.158;2023-07-28T08:10:12;4.00;;;2.40;;
34064;SDS011;20339;49.754;20.158;2023-07-28T08:12:45;6.30;;;2.30;;
34064;SDS011;20339;49.754;20.158;2023-07-28T08:15:26;4.00;;;2.10;;
34064;SDS011;20339;49.754;20.158;2023-07-28T08:17:59;2.70;;;2.40;;
34064;SDS011;20339;49.754;20.158;2023-07-28T08:20:31;2.50;;;1.90;;
34064;SDS011;20339;49.754;20.158;2023-07-28T08:23:02;2.40;;;1.90;;
34064;SDS011;20339;49.754;20.158;2023-07-28T08:25:34;2.30;;;2.00;;
34064;SDS011;20339;49.754;20.158;2023-07-28T08:28:05;3.80;;;2.30;;
34064;SDS011;20339;49.754;20.158;2023-07-28T08:30:40;2.80;;;2.60;;
34064;SDS011;20339;49.754;20.158;2023-07-28T08:33:11;3.20;;;2.50;;
34064;SDS011;20339;49.754;20.158;2023-07-28T08:35:44;2.90;;;2.30;;
34064;SDS011;20339;49.754;20.158;2023-07-28T08:38:16;3.20;;;2.30;;
34064;SDS011;20339;49.754;20.158;2023-07-28T08:40:47;4.20;;;2.40;;
34064;SDS011;20339;49.754;20.158;2023-07-28T08:43:19;4.00;;;2.30;;
34064;SDS011;20339;49.754;20.158;2023-07-28T08:45:50;3.60;;;2.60;;
34064;SDS011;20339;49.754;20.158;2023-07-28T08:48:25;3.60;;;2.50;;
34064;SDS011;20339;49.754;20.158;2023-07-28T08:50:58;3.70;;;2.40;;
34064;SDS011;20339;49.754;20.158;2023-07-28T08:53:32;3.30;;;2.50;;
34064;SDS011;20339;49.754;20.158;2023-07-28T08:56:03;3.90;;;2.80;;
34064;SDS011;20339;49.754;20.158;2023-07-28T08:58:35;2.70;;;2.30;;
34064;SDS011;20339;49.754;20.158;2023-07-28T09:01:08;3.60;;;2.70;;
34064;SDS011;20339;49.754;20.158;2023-07-28T09:03:40;3.00;;;2.40;;
34064;SDS011;20339;49.754;20.158;2023-07-28T09:06:11;2.40;;;2.00;;
34064;SDS011;20339;49.754;20.158;2023-07-28T09:08:42;3.10;;;2.70;;
34064;SDS011;20339;49.754;20.158;2023-07-28T09:11:14;3.40;;;2.50;;
34064;SDS011;20339;49.754;20.158;2023-07-28T09:13:46;3.40;;;2.80;;
34064;SDS011;20339;49.754;20.158;2023-07-28T09:16:17;3.50;;;2.70;;
34064;SDS011;20339;49.754;20.158;2023-07-28T09:18:50;2.90;;;2.40;;
34064;SDS011;20339;49.754;20.158;2023-07-28T09:21:33;4.20;;;2.60;;
34064;SDS011;20339;49.754;20.158;2023-07-28T09:24:05;3.30;;;2.60;;
34064;SDS011;20339;49.754;20.158;2023-07-28T09:26:39;3.30;;;2.50;;
34064;SDS011;20339;49.754;20.158;2023-07-28T09:29:15;3.40;;;2.70;;
34064;SDS011;20339;49.754;20.158;2023-07-28T09:31:48;5.70;;;3.20;;
34064;SDS011;20339;49.754;20.158;2023-07-28T09:34:25;2.80;;;2.20;;
34064;SDS011;20339;49.754;20.158;2023-07-28T09:36:58;2.70;;;2.30;;
34064;SDS011;20339;49.754;20.158;2023-07-28T09:39:34;3.30;;;2.40;;
34064;SDS011;20339;49.754;20.158;2023-07-28T09:42:09;3.20;;;2.10;;
34064;SDS011;20339;49.754;20.158;2023-07-28T09:44:43;2.90;;;2.60;;
34064;SDS011;20339;49.754;20.158;2023-07-28T09:47:15;3.40;;;2.20;;
34064;SDS011;20339;49.754;20.158;2023-07-28T09:49:46;3.10;;;2.60;;
34064;SDS011;20339;49.754;20.158;2023-07-28T09:52:20;3.40;;;2.70;;
34064;SDS011;20339;49.754;20.158;2023-07-28T09:54:57;3.90;;;2.40;;
34064;SDS011;20339;49.754;20.158;2023-07-28T09:57:36;3.00;;;2.20;;
34064;SDS011;20339;49.754;20.158;2023-07-28T10:00:10;3.10;;;2.40;;
34064;SDS011;20339;49.754;20.158;2023-07-28T10:02:42;4.60;;;3.20;;
34064;SDS011;20339;49.754;20.158;2023-07-28T10:05:14;3.70;;;2.70;;
34064;SDS011;20339;49.754;20.158;2023-07-28T10:07:48;3.30;;;2.70;;
34064;SDS011;20339;49.754;20.158;2023-07-28T10:10:20;4.10;;;2.60;;
34064;SDS011;20339;49.754;20.158;2023-07-28T10:12:52;2.80;;;2.20;;
34064;SDS011;20339;49.754;20.158;2023-07-28T10:15:32;3.30;;;2.50;;
34064;SDS011;20339;49.754;20.158;2023-07-28T10:18:05;2.90;;;2.30;;
34064;SDS011;20339;49.754;20.158;2023-07-28T10:20:38;3.00;;;2.50;;
34064;SDS011;20339;49.754;20.158;2023-07-28T10:23:15;2.70;;;2.20;;
34064;SDS011;20339;49.754;20.158;2023-07-28T10:25:56;3.30;;;2.70;;
34064;SDS011;20339;49.754;20.158;2023-07-28T10:28:34;3.10;;;2.50;;
34064;SDS011;20339;49.754;20.158;2023-07-28T10:31:09;2.80;;;2.50;;
34064;SDS011;20339;49.754;20.158;2023-07-28T10:33:44;2.60;;;2.00;;
34064;SDS011;20339;49.754;20.158;2023-07-28T10:36:18;3.00;;;2.10;;
34064;SDS011;20339;49.754;20.158;2023-07-28T10:39:13;1.80;;;1.40;;
34064;SDS011;20339;49.754;20.158;2023-07-28T10:42:10;1.60;;;1.20;;
34064;SDS011;20339;49.754;20.158;2023-07-28T10:44:41;1.80;;;1.40;;
34064;SDS011;20339;49.754;20.158;2023-07-28T10:47:12;2.50;;;1.20;;
34064;SDS011;20339;49.754;20.158;2023-07-28T10:49:48;2.20;;;1.40;;
34064;SDS011;20339;49.754;20.158;2023-07-28T10:52:20;1.40;;;1.10;;
34064;SDS011;20339;49.754;20.158;2023-07-28T10:54:59;1.60;;;1.30;;
34064;SDS011;20339;49.754;20.158;2023-07-28T10:57:32;1.90;;;1.80;;
34064;SDS011;20339;49.754;20.158;2023-07-28T11:00:06;2.00;;;1.80;;
34064;SDS011;20339;49.754;20.158;2023-07-28T11:02:40;2.10;;;1.80;;
34064;SDS011;20339;49.754;20.158;2023-07-28T11:05:18;2.90;;;1.60;;
34064;SDS011;20339;49.754;20.158;2023-07-28T11:07:53;1.60;;;1.40;;
34064;SDS011;20339;49.754;20.158;2023-07-28T11:10:30;2.60;;;1.90;;
34064;SDS011;20339;49.754;20.158;2023-07-28T11:13:05;1.80;;;1.70;;
34064;SDS011;20339;49.754;20.158;2023-07-28T11:15:37;3.10;;;2.10;;
34064;SDS011;20339;49.754;20.158;2023-07-28T11:18:09;2.40;;;1.90;;
34064;SDS011;20339;49.754;20.158;2023-07-28T11:20:40;2.10;;;1.90;;
34064;SDS011;20339;49.754;20.158;2023-07-28T11:23:14;2.90;;;2.30;;
34064;SDS011;20339;49.754;20.158;2023-07-28T11:25:45;3.10;;;2.00;;
34064;SDS011;20339;49.754;20.158;2023-07-28T11:28:17;2.10;;;1.80;;
34064;SDS011;20339;49.754;20.158;2023-07-28T11:30:50;2.60;;;2.10;;
34064;SDS011;20339;49.754;20.158;2023-07-28T11:33:22;2.80;;;2.30;;
34064;SDS011;20339;49.754;20.158;2023-07-28T11:35:56;2.20;;;2.00;;
34064;SDS011;20339;49.754;20.158;2023-07-28T11:38:29;2.30;;;1.90;;
34064;SDS011;20339;49.754;20.158;2023-07-28T11:41:03;2.40;;;2.20;;
34064;SDS011;20339;49.754;20.158;2023-07-28T11:43:35;4.10;;;1.90;;
34064;SDS011;20339;49.754;20.158;2023-07-28T11:49:13;2.40;;;2.00;;
34064;SDS011;20339;49.754;20.158;2023-07-28T11:51:50;3.60;;;2.20;;
34064;SDS011;20339;49.754;20.158;2023-07-28T11:54:24;2.30;;;2.00;;
34064;SDS011;20339;49.754;20.158;2023-07-28T11:56:57;2.20;;;1.90;;
34064;SDS011;20339;49.754;20.158;2023-07-28T11:59:30;2.70;;;2.10;;
34064;SDS011;20339;49.754;20.158;2023-07-28T12:02:06;1.70;;;1.60;;
34064;SDS011;20339;49.754;20.158;2023-07-28T12:04:39;2.00;;;1.80;;
34064;SDS011;20339;49.754;20.158;2023-07-28T12:07:12;3.30;;;2.10;;
34064;SDS011;20339;49.754;20.158;2023-07-28T12:09:49;2.10;;;1.90;;
34064;SDS011;20339;49.754;20.158;2023-07-28T12:12:22;2.40;;;2.10;;
34064;SDS011;20339;49.754;20.158;2023-07-28T12:14:54;3.80;;;2.10;;
34064;SDS011;20339;49.754;20.158;2023-07-28T12:17:32;1.90;;;1.70;;
34064;SDS011;20339;49.754;20.158;2023-07-28T12:20:05;2.10;;;1.70;;
34064;SDS011;20339;49.754;20.158;2023-07-28T12:22:39;1.60;;;1.10;;
34064;SDS011;20339;49.754;20.158;2023-07-28T12:25:12;1.70;;;1.50;;
34064;SDS011;20339;49.754;20.158;2023-07-28T12:27:43;1.60;;;1.50;;
34064;SDS011;20339;49.754;20.158;2023-07-28T12:30:15;2.90;;;1.40;;
34064;SDS011;20339;49.754;20.158;2023-07-28T12:32:47;1.90;;;1.50;;
34064;SDS011;20339;49.754;20.158;2023-07-28T12:35:19;2.20;;;1.30;;
34064;SDS011;20339;49.754;20.158;2023-07-28T12:37:52;1.60;;;1.20;;
34064;SDS011;20339;49.754;20.158;2023-07-28T12:40:27;1.50;;;1.30;;
34064;SDS011;20339;49.754;20.158;2023-07-28T12:43:01;1.60;;;1.30;;
34064;SDS011;20339;49.754;20.158;2023-07-28T12:45:33;1.30;;;1.10;;
34064;SDS011;20339;49.754;20.158;2023-07-28T12:48:04;1.90;;;1.60;;
34064;SDS011;20339;49.754;20.158;2023-07-28T12:50:35;1.30;;;1.20;;
34064;SDS011;20339;49.754;20.158;2023-07-28T12:53:09;2.00;;;1.30;;
34064;SDS011;20339;49.754;20.158;2023-07-28T12:55:41;1.50;;;1.30;;
34064;SDS011;20339;49.754;20.158;2023-07-28T12:58:13;1.60;;;1.30;;
34064;SDS011;20339;49.754;20.158;2023-07-28T13:00:45;1.50;;;0.90;;
34064;SDS011;20339;49.754;20.158;2023-07-28T13:03:16;1.20;;;1.00;;
34064;SDS011;20339;49.754;20.158;2023-07-28T13:05:47;1.80;;;0.90;;
34064;SDS011;20339;49.754;20.158;2023-07-28T13:08:19;1.60;;;1.00;;
34064;SDS011;20339;49.754;20.158;2023-07-28T13:10:50;1.60;;;1.20;;
34064;SDS011;20339;49.754;20.158;2023-07-28T13:13:23;1.80;;;1.20;;
34064;SDS011;20339;49.754;20.158;2023-07-28T13:15:56;0.80;;;0.80;;
34064;SDS011;20339;49.754;20.158;2023-07-28T13:18:32;1.40;;;0.90;;
34064;SDS011;20339;49.754;20.158;2023-07-28T13:21:04;1.60;;;1.00;;
34064;SDS011;20339;49.754;20.158;2023-07-28T13:23:36;1.30;;;1.00;;
34064;SDS011;20339;49.754;20.158;2023-07-28T13:26:10;1.00;;;0.80;;
34064;SDS011;20339;49.754;20.158;2023-07-28T13:28:41;1.10;;;1.00;;
34064;SDS011;20339;49.754;20.158;2023-07-28T13:31:15;2.00;;;0.90;;
34064;SDS011;20339;49.754;20.158;2023-07-28T13:33:47;1.30;;;1.00;;
34064;SDS011;20339;49.754;20.158;2023-07-28T13:36:20;1.50;;;1.10;;
34064;SDS011;20339;49.754;20.158;2023-07-28T13:38:51;1.10;;;0.80;;
34064;SDS011;20339;49.754;20.158;2023-07-28T13:41:22;0.80;;;0.80;;
34064;SDS011;20339;49.754;20.158;2023-07-28T13:43:53;0.60;;;0.60;;
34064;SDS011;20339;49.754;20.158;2023-07-28T13:46:25;1.70;;;0.70;;
34064;SDS011;20339;49.754;20.158;2023-07-28T13:48:59;1.10;;;0.80;;
34064;SDS011;20339;49.754;20.158;2023-07-28T13:51:30;0.70;;;0.60;;
34064;SDS011;20339;49.754;20.158;2023-07-28T13:54:03;0.90;;;0.80;;
34064;SDS011;20339;49.754;20.158;2023-07-28T13:56:37;1.30;;;0.80;;
34064;SDS011;20339;49.754;20.158;2023-07-28T13:59:13;1.40;;;0.70;;
34064;SDS011;20339;49.754;20.158;2023-07-28T14:01:46;2.50;;;0.90;;
34064;SDS011;20339;49.754;20.158;2023-07-28T14:04:19;0.90;;;0.80;;
34064;SDS011;20339;49.754;20.158;2023-07-28T14:06:53;1.30;;;1.00;;
34064;SDS011;20339;49.754;20.158;2023-07-28T14:09:27;0.70;;;0.60;;
34064;SDS011;20339;49.754;20.158;2023-07-28T14:12:02;1.10;;;0.90;;
34064;SDS011;20339;49.754;20.158;2023-07-28T14:14:33;0.70;;;0.40;;
34064;SDS011;20339;49.754;20.158;2023-07-28T14:17:05;1.50;;;0.80;;
34064;SDS011;20339;49.754;20.158;2023-07-28T14:19:38;1.00;;;0.70;;
34064;SDS011;20339;49.754;20.158;2023-07-28T14:22:09;0.80;;;0.70;;
34064;SDS011;20339;49.754;20.158;2023-07-28T14:24:48;1.60;;;0.70;;
34064;SDS011;20339;49.754;20.158;2023-07-28T14:27:20;1.00;;;0.80;;
34064;SDS011;20339;49.754;20.158;2023-07-28T14:29:51;0.80;;;0.70;;
34064;SDS011;20339;49.754;20.158;2023-07-28T14:32:23;1.40;;;0.80;;
34064;SDS011;20339;49.754;20.158;2023-07-28T14:34:55;0.90;;;0.70;;
34064;SDS011;20339;49.754;20.158;2023-07-28T14:37:28;1.10;;;1.00;;
34064;SDS011;20339;49.754;20.158;2023-07-28T14:40:02;0.80;;;0.80;;
34064;SDS011;20339;49.754;20.158;2023-07-28T14:42:36;1.10;;;0.80;;
34064;SDS011;20339;49.754;20.158;2023-07-28T14:45:09;1.90;;;1.00;;
34064;SDS011;20339;49.754;20.158;2023-07-28T14:47:41;1.00;;;0.80;;
34064;SDS011;20339;49.754;20.158;2023-07-28T14:50:15;2.50;;;1.10;;
34064;SDS011;20339;49.754;20.158;2023-07-28T14:52:46;1.30;;;1.10;;
34064;SDS011;20339;49.754;20.158;2023-07-28T14:55:20;1.30;;;1.10;;
34064;SDS011;20339;49.754;20.158;2023-07-28T14:57:51;1.80;;;1.20;;
34064;SDS011;20339;49.754;20.158;2023-07-28T15:00:27;2.00;;;1.70;;
34064;SDS011;20339;49.754;20.158;2023-07-28T15:02:59;1.40;;;1.10;;
34064;SDS011;20339;49.754;20.158;2023-07-28T15:05:30;2.30;;;1.20;;
34064;SDS011;20339;49.754;20.158;2023-07-28T15:08:02;2.20;;;1.40;;